Todd G — WRC6671 — position and weather

sailwx.info

Track history (hours):
 
Tides and Currents Weather Stations Pressure Air Temp Water Temp Dewpoint Dewpoint Depression Visibility Wind Speed Wind Dir Waves Ship Positions

Todd G

Owner: Harbor Towing & Fleeting, Inc., Metairie, LA. More information available from US FCC via Universal Licensing System and Coast Guard Vessel Documentation Center.

Last reported at 2014-Dec-18 08:27 UTC. Time now 2014-Dec-18 10:30 UTC.
Position N 29°59' W 090°01'.

Length 16 m.

Type: Towing. MMSI: 366988470.

Date/timePositionNaut miles runAvg speedWind from/ knotsBaromVisibWave heightAir tempDewpointWater temp
2014-Dec-18 08:27N 29°59' W 090°01'0 0.0
2014-Dec-18 06:33N 29°59' W 090°01'3 0.5
2014-Dec-18 00:09N 29°56' W 090°00'0 0.0
2014-Dec-17 23:29N 29°56' W 090°00'0 0.0
2014-Dec-17 22:18N 29°56' W 090°00'0 0.0
2014-Dec-17 21:29N 29°56' W 090°00'2 1.6
2014-Dec-17 20:31N 29°56' W 089°59'2 1.2
2014-Dec-17 19:16N 29°56' W 090°00'2 2.3
2014-Dec-17 18:17N 29°56' W 089°58'4 5.3
2014-Dec-17 17:33N 29°58' W 090°02'1 1.0
2014-Dec-17 16:32N 29°59' W 090°01'3 0.2
2014-Dec-17 03:33N 29°56' W 090°00'0 0.0
2014-Dec-17 02:31N 29°56' W 090°00'2 2.0
2014-Dec-17 01:33N 29°58' W 090°02'1 1.4
2014-Dec-17 00:32N 29°59' W 090°01'2 1.6
2014-Dec-16 23:33N 29°58' W 090°02'2 1.5
2014-Dec-16 22:22N 29°56' W 090°00'0 0.0
2014-Dec-16 07:23N 29°56' W 090°00'0 0.0
2014-Dec-16 06:18N 29°56' W 090°00'0 0.0
2014-Dec-16 04:24N 29°56' W 090°00'0 0.0
2014-Dec-16 03:32N 29°56' W 090°00'0 0.0
2014-Dec-16 02:08N 29°56' W 090°00'2 2.2
2014-Dec-16 01:07N 29°58' W 090°02'2 1.4
2014-Dec-15 23:21N 29°60' W 090°01'0 0.6
2014-Dec-15 22:31N 29°60' W 090°00'0 0.0
2014-Dec-15 21:33N 29°60' W 090°00'6 4.8
2014-Dec-15 20:17N 30°01' W 089°54'5 6.4
2014-Dec-15 19:32N 29°60' W 089°59'3 3.3
2014-Dec-15 18:33N 29°58' W 090°02'0 0.2
2014-Dec-15 17:31N 29°58' W 090°02'2 1.8
2014-Dec-15 16:23N 29°56' W 090°00'0 0.3
2014-Dec-15 15:15N 29°56' W 090°00'2 0.2
2014-Dec-15 03:23N 29°58' W 090°01'1 0.3
2014-Dec-15 00:17N 29°58' W 090°02'0 0.1
2014-Dec-14 20:18N 29°58' W 090°02'1 1.7
2014-Dec-14 19:30N 29°59' W 090°01'0 0.5
2014-Dec-14 18:31N 29°59' W 090°01'3 2.6
2014-Dec-14 17:32N 29°56' W 090°00'0 0.0
2014-Dec-14 16:33N 29°56' W 090°00'0 0.0
2014-Dec-14 15:19N 29°56' W 090°00'0 0.0
2014-Dec-14 14:33N 29°56' W 090°00'0 0.0
2014-Dec-14 13:33N 29°56' W 090°00'0 0.0
2014-Dec-14 12:33N 29°56' W 090°00'0 0.0
2014-Dec-14 11:32N 29°56' W 090°00'0 0.0
2014-Dec-14 10:30N 29°56' W 090°00'2 2.2
2014-Dec-14 09:29N 29°55' W 089°58'1 1.2
2014-Dec-14 08:33N 29°54' W 089°59'0 0.1
2014-Dec-14 07:28N 29°54' W 089°59'2 1.5
2014-Dec-14 06:29N 29°55' W 089°58'2 2.0
2014-Dec-14 05:32N 29°56' W 090°00'0 0.3
2014-Dec-14 04:32N 29°56' W 090°00'0 0.0
2014-Dec-14 03:30N 29°56' W 090°00'0 0.0
2014-Dec-14 02:13N 29°56' W 090°00'0 0.0
2014-Dec-14 01:14N 29°56' W 090°00'3 0.2
2014-Dec-13 13:09N 29°59' W 090°01'1 0.9
2014-Dec-13 12:32N 29°59' W 090°01'3 1.3
2014-Dec-13 10:31N 29°56' W 090°00'0 0.0
2014-Dec-13 06:04N 29°56' W 090°00'0 0.4
2014-Dec-13 05:18N 29°56' W 090°00'0 0.0
2014-Dec-13 04:26N 29°56' W 090°00'0 0.0
2014-Dec-13 03:32N 29°56' W 090°00'0 0.1
2014-Dec-13 02:29N 29°56' W 090°00'1 1.0
2014-Dec-13 01:32N 29°57' W 090°01'1 1.3
2014-Dec-13 00:33N 29°58' W 090°02'2 1.6
2014-Dec-12 23:30N 29°60' W 090°01'0 0.0
2014-Dec-12 22:31N 29°60' W 090°01'0 0.0
2014-Dec-12 21:33N 29°60' W 090°01'0 0.0
2014-Dec-12 20:29N 29°60' W 090°01'0 0.0
2014-Dec-12 19:32N 29°60' W 090°01'1 0.5
2014-Dec-12 18:33N 29°59' W 090°01'0 0.0
2014-Dec-12 17:33N 29°59' W 090°01'1 0.5
2014-Dec-12 16:31N 29°60' W 090°01'1 0.8
2014-Dec-12 15:31N 29°59' W 090°01'0 0.4
2014-Dec-12 14:32N 29°59' W 090°01'0 0.1
2014-Dec-12 13:19N 29°59' W 090°01'0 0.1
2014-Dec-12 12:25N 29°59' W 090°01'6 3.3
2014-Dec-12 10:31N 30°01' W 089°54'7 0.5
2014-Dec-11 19:09N 29°58' W 090°02'0 0.3
2014-Dec-11 18:20N 29°58' W 090°02'1 1.0
2014-Dec-11 17:09N 29°57' W 090°01'1 2.2
2014-Dec-11 16:31N 29°56' W 090°00'0 0.0
2014-Dec-11 15:29N 29°56' W 090°00'0 0.0
2014-Dec-11 14:30N 29°56' W 090°00'0 0.0
2014-Dec-11 13:31N 29°56' W 090°00'0 0.0
2014-Dec-11 12:32N 29°56' W 090°00'0 0.0
2014-Dec-11 11:33N 29°56' W 090°00'2 1.8
2014-Dec-11 10:32N 29°55' W 089°58'4 3.8
2014-Dec-11 09:33N 29°57' W 090°02'1 1.0
2014-Dec-11 08:34N 29°58' W 090°01'0 0.0
2014-Dec-11 07:32N 29°58' W 090°01'1 1.4
2014-Dec-11 06:32N 29°60' W 090°01'2 2.6
2014-Dec-11 05:33N 29°57' W 090°01'1 1.2
2014-Dec-11 04:32N 29°56' W 090°00'0 0.1
2014-Dec-11 03:21N 29°56' W 090°00'0 0.0
2014-Dec-11 02:21N 29°56' W 090°00'3 0.2
2014-Dec-10 11:20N 29°59' W 090°01'0 0.0
2014-Dec-10 10:28N 29°59' W 090°01'0 0.0
2014-Dec-10 09:20N 29°59' W 090°01'0 0.0
2014-Dec-10 08:32N 29°59' W 090°01'0 0.0
2014-Dec-10 07:25N 29°59' W 090°01'0 0.0
2014-Dec-10 06:25N 29°59' W 090°01'0 0.0
2014-Dec-10 05:32N 29°59' W 090°01'0 0.0
2014-Dec-10 04:33N 29°59' W 090°01'0 0.0
2014-Dec-10 03:32N 29°59' W 090°01'0 0.0
2014-Dec-10 02:32N 29°59' W 090°01'0 0.0
2014-Dec-10 01:31N 29°59' W 090°01'0 0.0
2014-Dec-10 00:33N 29°59' W 090°01'1 0.5
2014-Dec-09 23:32N 29°59' W 090°01'0 0.2
2014-Dec-09 22:32N 29°59' W 090°01'0 0.0
2014-Dec-09 21:33N 29°59' W 090°01'1 0.6
2014-Dec-09 20:32N 29°60' W 090°01'1 0.6
2014-Dec-09 19:31N 29°59' W 090°01'0 0.1
2014-Dec-09 18:32N 29°59' W 090°01'0 0.0
2014-Dec-09 17:31N 29°59' W 090°01'0 0.1
2014-Dec-09 16:31N 29°59' W 090°01'0 0.3
2014-Dec-09 15:29N 29°59' W 090°01'0 0.2
2014-Dec-09 14:32N 29°59' W 090°01'0 0.1
2014-Dec-09 11:16N 29°59' W 090°01'0 0.0
2014-Dec-09 10:30N 29°59' W 090°01'0 0.0
2014-Dec-09 08:10N 29°59' W 090°01'0 0.0
2014-Dec-09 07:11N 29°59' W 090°01'1 0.1
2014-Dec-09 01:08N 29°60' W 090°00'2 2.8
2014-Dec-09 00:20N 29°58' W 090°02'2 0.4
2014-Dec-08 19:19N 29°56' W 090°00'2 2.5
2014-Dec-08 18:33N 29°58' W 090°02'2 1.6
2014-Dec-08 17:33N 29°60' W 090°01'0 0.3
2014-Dec-08 16:32N 29°59' W 090°01'0 0.1
2014-Dec-08 15:33N 29°59' W 090°01'0 0.1
2014-Dec-08 14:31N 29°59' W 090°01'0 0.0
2014-Dec-08 13:31N 29°59' W 090°01'0 0.0
2014-Dec-08 12:32N 29°59' W 090°01'1 1.5
2014-Dec-08 11:33N 29°58' W 090°02'2 1.8
2014-Dec-08 10:29N 29°56' W 090°00'0 0.0
2014-Dec-08 09:33N 29°56' W 090°00'  
Track history (hours):
 
Tides and Currents Weather Stations Pressure Air Temp Water Temp Dewpoint Dewpoint Depression Visibility Wind Speed Wind Dir Waves Ship Positions

Todd G

Owner: Harbor Towing & Fleeting, Inc., Metairie, LA. More information available from US FCC via Universal Licensing System and Coast Guard Vessel Documentation Center.

Last reported at 2014-Dec-18 08:27 UTC. Time now 2014-Dec-18 10:30 UTC.
Position N 29°59' W 090°01'.

Length 16 m.

Type: Towing. MMSI: 366988470.

Date/timePositionNaut miles runAvg speedWind from/ knotsBaromVisibWave heightAir tempDewpointWater temp
2014-Dec-18 08:27N 29°59' W 090°01'0 0.0
2014-Dec-18 06:33N 29°59' W 090°01'3 0.5
2014-Dec-18 00:09N 29°56' W 090°00'0 0.0
2014-Dec-17 23:29N 29°56' W 090°00'0 0.0
2014-Dec-17 22:18N 29°56' W 090°00'0 0.0
2014-Dec-17 21:29N 29°56' W 090°00'2 1.6
2014-Dec-17 20:31N 29°56' W 089°59'2 1.2
2014-Dec-17 19:16N 29°56' W 090°00'2 2.3
2014-Dec-17 18:17N 29°56' W 089°58'4 5.3
2014-Dec-17 17:33N 29°58' W 090°02'1 1.0
2014-Dec-17 16:32N 29°59' W 090°01'3 0.2
2014-Dec-17 03:33N 29°56' W 090°00'0 0.0
2014-Dec-17 02:31N 29°56' W 090°00'2 2.0
2014-Dec-17 01:33N 29°58' W 090°02'1 1.4
2014-Dec-17 00:32N 29°59' W 090°01'2 1.6
2014-Dec-16 23:33N 29°58' W 090°02'2 1.5
2014-Dec-16 22:22N 29°56' W 090°00'0 0.0
2014-Dec-16 07:23N 29°56' W 090°00'0 0.0
2014-Dec-16 06:18N 29°56' W 090°00'0 0.0
2014-Dec-16 04:24N 29°56' W 090°00'0 0.0
2014-Dec-16 03:32N 29°56' W 090°00'0 0.0
2014-Dec-16 02:08N 29°56' W 090°00'2 2.2
2014-Dec-16 01:07N 29°58' W 090°02'2 1.4
2014-Dec-15 23:21N 29°60' W 090°01'0 0.6
2014-Dec-15 22:31N 29°60' W 090°00'0 0.0
2014-Dec-15 21:33N 29°60' W 090°00'6 4.8
2014-Dec-15 20:17N 30°01' W 089°54'5 6.4
2014-Dec-15 19:32N 29°60' W 089°59'3 3.3
2014-Dec-15 18:33N 29°58' W 090°02'0 0.2
2014-Dec-15 17:31N 29°58' W 090°02'2 1.8
2014-Dec-15 16:23N 29°56' W 090°00'0 0.3
2014-Dec-15 15:15N 29°56' W 090°00'2 0.2
2014-Dec-15 03:23N 29°58' W 090°01'1 0.3
2014-Dec-15 00:17N 29°58' W 090°02'0 0.1
2014-Dec-14 20:18N 29°58' W 090°02'1 1.7
2014-Dec-14 19:30N 29°59' W 090°01'0 0.5
2014-Dec-14 18:31N 29°59' W 090°01'3 2.6
2014-Dec-14 17:32N 29°56' W 090°00'0 0.0
2014-Dec-14 16:33N 29°56' W 090°00'0 0.0
2014-Dec-14 15:19N 29°56' W 090°00'0 0.0
2014-Dec-14 14:33N 29°56' W 090°00'0 0.0
2014-Dec-14 13:33N 29°56' W 090°00'0 0.0
2014-Dec-14 12:33N 29°56' W 090°00'0 0.0
2014-Dec-14 11:32N 29°56' W 090°00'0 0.0
2014-Dec-14 10:30N 29°56' W 090°00'2 2.2
2014-Dec-14 09:29N 29°55' W 089°58'1 1.2
2014-Dec-14 08:33N 29°54' W 089°59'0 0.1
2014-Dec-14 07:28N 29°54' W 089°59'2 1.5
2014-Dec-14 06:29N 29°55' W 089°58'2 2.0
2014-Dec-14 05:32N 29°56' W 090°00'0 0.3
2014-Dec-14 04:32N 29°56' W 090°00'0 0.0
2014-Dec-14 03:30N 29°56' W 090°00'0 0.0
2014-Dec-14 02:13N 29°56' W 090°00'0 0.0
2014-Dec-14 01:14N 29°56' W 090°00'3 0.2
2014-Dec-13 13:09N 29°59' W 090°01'1 0.9
2014-Dec-13 12:32N 29°59' W 090°01'3 1.3
2014-Dec-13 10:31N 29°56' W 090°00'0 0.0
2014-Dec-13 06:04N 29°56' W 090°00'0 0.4
2014-Dec-13 05:18N 29°56' W 090°00'0 0.0
2014-Dec-13 04:26N 29°56' W 090°00'0 0.0
2014-Dec-13 03:32N 29°56' W 090°00'0 0.1
2014-Dec-13 02:29N 29°56' W 090°00'1 1.0
2014-Dec-13 01:32N 29°57' W 090°01'1 1.3
2014-Dec-13 00:33N 29°58' W 090°02'2 1.6
2014-Dec-12 23:30N 29°60' W 090°01'0 0.0
2014-Dec-12 22:31N 29°60' W 090°01'0 0.0
2014-Dec-12 21:33N 29°60' W 090°01'0 0.0
2014-Dec-12 20:29N 29°60' W 090°01'0 0.0
2014-Dec-12 19:32N 29°60' W 090°01'1 0.5
2014-Dec-12 18:33N 29°59' W 090°01'0 0.0
2014-Dec-12 17:33N 29°59' W 090°01'1 0.5
2014-Dec-12 16:31N 29°60' W 090°01'1 0.8
2014-Dec-12 15:31N 29°59' W 090°01'0 0.4
2014-Dec-12 14:32N 29°59' W 090°01'0 0.1
2014-Dec-12 13:19N 29°59' W 090°01'0 0.1
2014-Dec-12 12:25N 29°59' W 090°01'6 3.3
2014-Dec-12 10:31N 30°01' W 089°54'7 0.5
2014-Dec-11 19:09N 29°58' W 090°02'0 0.3
2014-Dec-11 18:20N 29°58' W 090°02'1 1.0
2014-Dec-11 17:09N 29°57' W 090°01'1 2.2
2014-Dec-11 16:31N 29°56' W 090°00'0 0.0
2014-Dec-11 15:29N 29°56' W 090°00'0 0.0
2014-Dec-11 14:30N 29°56' W 090°00'0 0.0
2014-Dec-11 13:31N 29°56' W 090°00'0 0.0
2014-Dec-11 12:32N 29°56' W 090°00'0 0.0
2014-Dec-11 11:33N 29°56' W 090°00'2 1.8
2014-Dec-11 10:32N 29°55' W 089°58'4 3.8
2014-Dec-11 09:33N 29°57' W 090°02'1 1.0
2014-Dec-11 08:34N 29°58' W 090°01'0 0.0
2014-Dec-11 07:32N 29°58' W 090°01'1 1.4
2014-Dec-11 06:32N 29°60' W 090°01'2 2.6
2014-Dec-11 05:33N 29°57' W 090°01'1 1.2
2014-Dec-11 04:32N 29°56' W 090°00'0 0.1
2014-Dec-11 03:21N 29°56' W 090°00'0 0.0
2014-Dec-11 02:21N 29°56' W 090°00'3 0.2
2014-Dec-10 11:20N 29°59' W 090°01'0 0.0
2014-Dec-10 10:28N 29°59' W 090°01'0 0.0
2014-Dec-10 09:20N 29°59' W 090°01'0 0.0
2014-Dec-10 08:32N 29°59' W 090°01'0 0.0
2014-Dec-10 07:25N 29°59' W 090°01'0 0.0
2014-Dec-10 06:25N 29°59' W 090°01'0 0.0
2014-Dec-10 05:32N 29°59' W 090°01'0 0.0
2014-Dec-10 04:33N 29°59' W 090°01'0 0.0
2014-Dec-10 03:32N 29°59' W 090°01'0 0.0
2014-Dec-10 02:32N 29°59' W 090°01'0 0.0
2014-Dec-10 01:31N 29°59' W 090°01'0 0.0
2014-Dec-10 00:33N 29°59' W 090°01'1 0.5
2014-Dec-09 23:32N 29°59' W 090°01'0 0.2
2014-Dec-09 22:32N 29°59' W 090°01'0 0.0
2014-Dec-09 21:33N 29°59' W 090°01'1 0.6
2014-Dec-09 20:32N 29°60' W 090°01'1 0.6
2014-Dec-09 19:31N 29°59' W 090°01'0 0.1
2014-Dec-09 18:32N 29°59' W 090°01'0 0.0
2014-Dec-09 17:31N 29°59' W 090°01'0 0.1
2014-Dec-09 16:31N 29°59' W 090°01'0 0.3
2014-Dec-09 15:29N 29°59' W 090°01'0 0.2
2014-Dec-09 14:32N 29°59' W 090°01'0 0.1
2014-Dec-09 11:16N 29°59' W 090°01'0 0.0
2014-Dec-09 10:30N 29°59' W 090°01'0 0.0
2014-Dec-09 08:10N 29°59' W 090°01'0 0.0
2014-Dec-09 07:11N 29°59' W 090°01'1 0.1
2014-Dec-09 01:08N 29°60' W 090°00'2 2.8
2014-Dec-09 00:20N 29°58' W 090°02'2 0.4
2014-Dec-08 19:19N 29°56' W 090°00'2 2.5
2014-Dec-08 18:33N 29°58' W 090°02'2 1.6
2014-Dec-08 17:33N 29°60' W 090°01'0 0.3
2014-Dec-08 16:32N 29°59' W 090°01'0 0.1
2014-Dec-08 15:33N 29°59' W 090°01'0 0.1
2014-Dec-08 14:31N 29°59' W 090°01'0 0.0
2014-Dec-08 13:31N 29°59' W 090°01'0 0.0
2014-Dec-08 12:32N 29°59' W 090°01'1 1.5
2014-Dec-08 11:33N 29°58' W 090°02'2 1.8
2014-Dec-08 10:29N 29°56' W 090°00'0 0.0
2014-Dec-08 09:33N 29°56' W 090°00'  

Dump ship's entire track history